createdAt,value
2023-03-14T00:00:15.150Z,-5.06
2023-03-14T00:02:18.442Z,-5.00
2023-03-14T00:04:21.125Z,-4.96
2023-03-14T00:06:42.391Z,-4.93
2023-03-14T00:09:04.084Z,-4.92
2023-03-14T00:11:25.250Z,-4.89
2023-03-14T00:13:51.222Z,-4.83
2023-03-14T00:16:14.061Z,-4.78
2023-03-14T00:18:36.306Z,-4.74
2023-03-14T00:20:59.446Z,-4.76
2023-03-14T00:23:20.697Z,-4.70
2023-03-14T00:25:41.732Z,-4.69
2023-03-14T00:28:02.881Z,-4.70
2023-03-14T00:30:23.936Z,-4.67
2023-03-14T00:32:45.273Z,-4.69
2023-03-14T00:35:07.189Z,-4.72
2023-03-14T00:37:29.081Z,-4.77
2023-03-14T00:39:52.285Z,-4.80
2023-03-14T00:42:13.361Z,-4.84
2023-03-14T00:44:34.514Z,-4.93
2023-03-14T00:46:56.534Z,-4.98
2023-03-14T00:49:18.145Z,-5.03
2023-03-14T00:51:39.498Z,-5.09
2023-03-14T00:53:42.703Z,-5.10
2023-03-14T00:55:46.049Z,-5.14
2023-03-14T00:57:48.869Z,-5.14
2023-03-14T00:59:52.941Z,-5.12
2023-03-14T01:01:55.653Z,-5.15
2023-03-14T01:03:58.382Z,-5.16
2023-03-14T01:06:23.006Z,-5.19
2023-03-14T01:08:25.546Z,-5.22
2023-03-14T01:10:28.444Z,-5.23
2023-03-14T01:12:31.044Z,-5.26
2023-03-14T01:14:33.736Z,-5.28
2023-03-14T01:16:36.559Z,-5.31
2023-03-14T01:18:57.975Z,-5.36
2023-03-14T01:21:28.816Z,-5.37
2023-03-14T01:23:50.975Z,-5.40
2023-03-14T01:26:13.983Z,-5.42
2023-03-14T01:28:34.888Z,-5.47
2023-03-14T01:30:56.152Z,-5.53
2023-03-14T01:32:58.779Z,-5.54
2023-03-14T01:35:01.509Z,-5.57
2023-03-14T01:37:06.718Z,-5.58
2023-03-14T01:39:10.013Z,-5.58
2023-03-14T01:41:25.230Z,-5.59
2023-03-14T01:43:28.091Z,-5.59
2023-03-14T01:46:09.985Z,-5.59
2023-03-14T01:48:12.678Z,-5.60
2023-03-14T01:50:15.355Z,-5.57
2023-03-14T01:52:24.277Z,-5.56
2023-03-14T01:54:29.496Z,-5.55
2023-03-14T01:56:32.738Z,-5.54
2023-03-14T01:58:38.336Z,-5.55
2023-03-14T02:00:41.174Z,-5.58
2023-03-14T02:02:51.475Z,-5.56
2023-03-14T02:04:56.410Z,-5.58
2023-03-14T02:07:12.479Z,-5.59
2023-03-14T02:09:15.729Z,-5.60
2023-03-14T02:11:19.760Z,-5.59
2023-03-14T02:13:23.247Z,-5.61
2023-03-14T02:15:26.281Z,-5.63
2023-03-14T02:17:29.121Z,-5.66
2023-03-14T02:19:58.116Z,-5.69
2023-03-14T02:22:10.259Z,-5.71
2023-03-14T02:24:21.648Z,-5.75
2023-03-14T02:26:33.397Z,-5.78
2023-03-14T02:28:36.205Z,-5.78
2023-03-14T02:30:39.029Z,-5.78
2023-03-14T02:32:47.080Z,-5.80
2023-03-14T02:34:55.573Z,-5.79
2023-03-14T02:36:58.950Z,-5.80
2023-03-14T02:39:21.247Z,-5.79
2023-03-14T02:41:23.743Z,-5.80
2023-03-14T02:43:26.133Z,-5.83
2023-03-14T02:45:39.746Z,-5.86
2023-03-14T02:47:48.314Z,-5.86
2023-03-14T02:49:54.771Z,-5.85
2023-03-14T02:51:57.606Z,-5.85
2023-03-14T02:54:00.495Z,-5.84
2023-03-14T02:56:03.474Z,-5.83
2023-03-14T02:58:06.330Z,-5.83
2023-03-14T03:00:09.693Z,-5.81
2023-03-14T03:02:12.375Z,-5.80
2023-03-14T03:04:14.969Z,-5.79
2023-03-14T03:06:17.595Z,-5.80
2023-03-14T03:08:21.717Z,-5.80
2023-03-14T03:10:24.691Z,-5.79
2023-03-14T03:12:27.381Z,-5.78
2023-03-14T03:14:29.983Z,-5.76
2023-03-14T03:16:32.723Z,-5.75
2023-03-14T03:18:35.380Z,-5.74
2023-03-14T03:20:38.438Z,-5.71
2023-03-14T03:22:41.302Z,-5.69
2023-03-14T03:24:45.641Z,-5.69
2023-03-14T03:26:48.427Z,-5.66
2023-03-14T03:28:53.026Z,-5.63
2023-03-14T03:30:55.700Z,-5.61
2023-03-14T03:32:58.534Z,-5.61
2023-03-14T03:35:01.342Z,-5.58
2023-03-14T03:37:04.147Z,-5.53
2023-03-14T03:39:06.805Z,-5.52
2023-03-14T03:41:09.731Z,-5.48
2023-03-14T03:43:12.474Z,-5.45
2023-03-14T03:45:15.032Z,-5.43
2023-03-14T03:47:17.606Z,-5.42
2023-03-14T03:49:20.221Z,-5.40
2023-03-14T03:51:22.879Z,-5.36
2023-03-14T03:53:33.335Z,-5.36
2023-03-14T03:55:36.782Z,-5.32
2023-03-14T03:57:39.419Z,-5.32
2023-03-14T03:59:42.306Z,-5.29
2023-03-14T04:01:45.193Z,-5.27
2023-03-14T04:03:47.981Z,-5.22
2023-03-14T04:06:05.594Z,-5.17
2023-03-14T04:08:08.342Z,-5.11
2023-03-14T04:10:11.349Z,-5.06
2023-03-14T04:12:14.481Z,-5.00
2023-03-14T04:14:17.516Z,-4.94
2023-03-14T04:16:25.523Z,-4.90
2023-03-14T04:18:28.737Z,-4.82
2023-03-14T04:20:31.338Z,-4.78
2023-03-14T04:22:33.961Z,-4.80
2023-03-14T04:24:36.586Z,-4.70
2023-03-14T04:26:39.224Z,-4.64
2023-03-14T04:28:41.886Z,-4.56
2023-03-14T04:30:44.888Z,-4.52
2023-03-14T04:32:47.539Z,-4.50
2023-03-14T04:34:50.276Z,-4.44
2023-03-14T04:36:52.866Z,-4.42
2023-03-14T04:38:55.401Z,-4.38
2023-03-14T04:40:58.084Z,-4.34
2023-03-14T04:43:00.699Z,-4.31
2023-03-14T04:45:03.918Z,-4.28
2023-03-14T04:47:06.670Z,-4.24
2023-03-14T04:49:09.324Z,-4.17
2023-03-14T04:51:12.190Z,-4.14
2023-03-14T04:53:15.577Z,-4.11
2023-03-14T04:55:18.249Z,-4.11
2023-03-14T04:57:21.040Z,-4.10
2023-03-14T04:59:23.571Z,-4.08
2023-03-14T05:01:26.436Z,-4.03
2023-03-14T05:03:29.191Z,-4.03
2023-03-14T05:05:31.829Z,-3.98
2023-03-14T05:07:34.456Z,-3.94
2023-03-14T05:09:37.033Z,-3.86
2023-03-14T05:11:39.622Z,-3.80
2023-03-14T05:13:42.279Z,-3.74
2023-03-14T05:15:45.029Z,-3.71
2023-03-14T05:17:47.797Z,-3.64
2023-03-14T05:19:50.469Z,-3.58
2023-03-14T05:21:53.155Z,-3.50
2023-03-14T05:23:55.747Z,-3.42
2023-03-14T05:25:58.335Z,-3.39
2023-03-14T05:28:01.001Z,-3.32
2023-03-14T05:30:05.632Z,-3.27
2023-03-14T05:32:08.261Z,-3.27
2023-03-14T05:34:10.849Z,-3.23
2023-03-14T05:36:13.508Z,-3.17
2023-03-14T05:38:16.372Z,-3.10
2023-03-14T05:40:19.017Z,-3.06
2023-03-14T05:42:21.880Z,-3.03
2023-03-14T05:44:24.844Z,-3.00
2023-03-14T05:46:27.408Z,-2.97
2023-03-14T05:48:30.185Z,-2.94
2023-03-14T05:50:32.843Z,-2.96
2023-03-14T05:52:35.434Z,-2.89
2023-03-14T05:54:38.015Z,-2.81
2023-03-14T05:56:40.810Z,-2.76
2023-03-14T05:58:43.433Z,-2.71
2023-03-14T06:00:46.109Z,-2.67
2023-03-14T06:02:48.884Z,-2.61
2023-03-14T06:04:51.494Z,-2.60
2023-03-14T06:06:54.178Z,-2.52
2023-03-14T06:08:56.766Z,-2.46
2023-03-14T06:10:59.823Z,-2.41
2023-03-14T06:13:02.561Z,-2.40
2023-03-14T06:15:05.591Z,-2.34
2023-03-14T06:17:08.420Z,-2.29
2023-03-14T06:19:11.499Z,-2.18
2023-03-14T06:21:14.347Z,-2.10
2023-03-14T06:23:17.155Z,-2.03
2023-03-14T06:25:20.280Z,-2.01
2023-03-14T06:27:24.478Z,-1.99
2023-03-14T06:29:27.424Z,-1.90
2023-03-14T06:31:33.679Z,-1.83
2023-03-14T06:33:36.408Z,-1.75
2023-03-14T06:35:39.149Z,-1.67
2023-03-14T06:37:41.970Z,-1.58
2023-03-14T06:39:45.615Z,-1.58
2023-03-14T06:41:48.361Z,-1.55
2023-03-14T06:43:51.227Z,-1.50
2023-03-14T06:45:53.932Z,-1.45
2023-03-14T06:47:56.717Z,-1.31
2023-03-14T06:49:59.348Z,-1.30
2023-03-14T06:52:02.029Z,-1.23
2023-03-14T06:54:04.847Z,-1.21
2023-03-14T06:56:08.269Z,-1.21
2023-03-14T06:58:11.309Z,-1.15
2023-03-14T07:00:15.382Z,-1.06
2023-03-14T07:02:18.310Z,-0.99
2023-03-14T07:04:21.013Z,-0.90
2023-03-14T07:06:23.951Z,-0.88
2023-03-14T07:08:26.760Z,-0.80
2023-03-14T07:10:29.697Z,-0.74
2023-03-14T07:12:32.459Z,-0.73
2023-03-14T07:14:35.034Z,-0.65
2023-03-14T07:16:37.775Z,-0.60
2023-03-14T07:18:40.494Z,-0.61
2023-03-14T07:20:43.048Z,-0.51
2023-03-14T07:22:48.534Z,-0.44
2023-03-14T07:24:51.074Z,-0.29
2023-03-14T07:28:57.888Z,-0.17
2023-03-14T07:31:00.757Z,-0.08
2023-03-14T07:33:04.171Z,-0.06
2023-03-14T07:35:07.831Z,-0.01
2023-03-14T07:37:10.924Z,0.00
2023-03-14T07:39:13.680Z,-0.02
2023-03-14T07:41:16.470Z,0.11
2023-03-14T07:43:19.136Z,0.09
2023-03-14T07:45:21.922Z,0.15
2023-03-14T07:47:24.621Z,0.14
2023-03-14T07:49:27.337Z,0.11
2023-03-14T07:51:29.971Z,0.16
2023-03-14T07:53:32.687Z,0.20
2023-03-14T07:55:35.681Z,0.17
2023-03-14T07:57:38.318Z,0.25
2023-03-14T07:59:41.097Z,0.25
2023-03-14T08:01:44.061Z,0.33
2023-03-14T08:03:46.972Z,0.39
2023-03-14T08:05:51.588Z,0.54
2023-03-14T08:07:54.283Z,0.63
2023-03-14T08:09:56.835Z,0.62
2023-03-14T08:11:59.598Z,0.66
2023-03-14T08:14:02.366Z,0.68
2023-03-14T08:16:05.807Z,0.72
2023-03-14T08:18:08.531Z,0.71
2023-03-14T08:20:12.846Z,0.71
2023-03-14T08:22:16.660Z,0.84
2023-03-14T08:24:20.467Z,0.92
2023-03-14T08:26:23.115Z,0.95
2023-03-14T08:28:31.504Z,1.04
2023-03-14T08:30:34.298Z,1.10
2023-03-14T08:32:37.695Z,1.10
2023-03-14T08:34:40.544Z,1.12
2023-03-14T08:36:43.784Z,1.16
2023-03-14T08:38:46.483Z,1.18
2023-03-14T08:40:49.279Z,1.09
2023-03-14T08:42:52.201Z,1.14
2023-03-14T08:44:54.829Z,1.17
2023-03-14T08:46:57.581Z,1.16
2023-03-14T08:49:00.324Z,1.18
2023-03-14T08:51:11.769Z,1.09
2023-03-14T08:53:14.788Z,1.24
2023-03-14T08:55:17.635Z,1.33
2023-03-14T08:57:20.370Z,1.33
2023-03-14T08:59:23.881Z,1.39
2023-03-14T09:01:27.490Z,1.48
2023-03-14T09:03:30.301Z,1.63
2023-03-14T09:05:35.499Z,1.67
2023-03-14T09:07:38.974Z,1.70
2023-03-14T09:09:41.562Z,1.89
2023-03-14T09:11:44.201Z,1.95
2023-03-14T09:13:46.790Z,1.84
2023-03-14T09:15:58.144Z,1.85
2023-03-14T09:18:00.991Z,1.80
2023-03-14T09:20:07.910Z,1.88
2023-03-14T09:22:10.560Z,2.07
2023-03-14T09:24:13.504Z,2.18
2023-03-14T09:26:16.619Z,2.28
2023-03-14T09:28:19.381Z,2.41
2023-03-14T09:30:22.308Z,2.53
2023-03-14T09:32:25.002Z,2.75
2023-03-14T09:34:28.708Z,2.90
2023-03-14T09:36:32.816Z,2.99
2023-03-14T09:38:36.427Z,3.12
2023-03-14T09:40:40.566Z,3.12
2023-03-14T09:42:43.893Z,3.23
2023-03-14T09:45:03.179Z,3.37
2023-03-14T09:47:09.654Z,3.48
2023-03-14T09:49:35.633Z,3.45
2023-03-14T09:51:38.526Z,3.25
2023-03-14T09:53:47.272Z,3.27
2023-03-14T09:55:53.351Z,3.41
2023-03-14T09:58:04.879Z,3.49
2023-03-14T10:00:26.202Z,3.31
2023-03-14T10:02:37.125Z,3.34
2023-03-14T10:04:42.761Z,3.43
2023-03-14T10:06:45.395Z,3.49
2023-03-14T10:08:48.244Z,3.55
2023-03-14T10:10:51.644Z,3.56
2023-03-14T10:13:00.522Z,3.72
2023-03-14T10:15:09.801Z,3.69
2023-03-14T10:17:15.143Z,3.74
2023-03-14T10:19:19.913Z,3.64
2023-03-14T10:21:30.556Z,3.72
2023-03-14T10:23:35.476Z,3.80
2023-03-14T10:25:42.328Z,3.87
2023-03-14T10:27:44.906Z,4.01
2023-03-14T10:29:59.825Z,4.18
2023-03-14T10:32:04.521Z,4.21
2023-03-14T10:34:22.405Z,4.00
2023-03-14T10:36:30.235Z,3.86
2023-03-14T10:38:36.583Z,3.84
2023-03-14T10:40:41.936Z,3.95
2023-03-14T10:42:48.286Z,3.92
2023-03-14T10:45:00.758Z,3.97
2023-03-14T10:47:07.672Z,4.03
2023-03-14T10:49:29.408Z,3.79
2023-03-14T10:51:32.371Z,3.81
2023-03-14T10:53:44.482Z,3.47
2023-03-14T10:55:47.517Z,3.48
2023-03-14T10:57:50.287Z,3.40
2023-03-14T10:59:54.366Z,3.36
2023-03-14T11:02:16.148Z,3.41
2023-03-14T11:04:59.350Z,3.44
2023-03-14T11:07:10.857Z,3.36
2023-03-14T11:09:13.961Z,3.32
2023-03-14T11:11:27.378Z,3.11
2023-03-14T11:13:48.132Z,3.23
2023-03-14T11:15:55.588Z,3.12
2023-03-14T11:18:43.305Z,2.97
2023-03-14T11:21:00.466Z,2.77
2023-03-14T11:23:17.444Z,2.65
2023-03-14T11:26:27.815Z,2.60
2023-03-14T11:28:45.291Z,2.72
2023-03-14T11:30:54.276Z,2.67
2023-03-14T11:33:18.575Z,2.58
2023-03-14T11:35:27.836Z,2.59
2023-03-14T11:37:45.086Z,2.43
2023-03-14T11:40:07.232Z,2.42
2023-03-14T11:42:16.942Z,2.48
2023-03-14T11:44:41.087Z,2.35
2023-03-14T11:46:52.230Z,2.31
2023-03-14T11:49:29.829Z,2.26
2023-03-14T11:51:38.260Z,2.17
2023-03-14T11:53:55.066Z,2.11
2023-03-14T11:55:57.812Z,2.09
2023-03-14T11:58:16.498Z,2.20
2023-03-14T12:00:22.056Z,2.24
2023-03-14T12:02:45.062Z,2.21
2023-03-14T12:04:55.392Z,2.15
2023-03-14T12:06:59.148Z,2.06
2023-03-14T12:09:06.742Z,2.06
2023-03-14T12:11:17.396Z,2.01
2023-03-14T12:13:20.671Z,2.06
2023-03-14T12:15:24.476Z,2.00
2023-03-14T12:17:41.193Z,1.98
2023-03-14T12:19:43.878Z,1.96
2023-03-14T12:22:13.817Z,1.93
2023-03-14T12:24:23.292Z,1.85
2023-03-14T12:26:30.476Z,1.82
2023-03-14T12:28:33.242Z,1.82
2023-03-14T12:30:43.029Z,1.80
2023-03-14T12:33:11.682Z,1.78
2023-03-14T12:35:44.770Z,1.75
2023-03-14T12:37:53.727Z,1.65
2023-03-14T12:40:18.610Z,1.76
2023-03-14T12:42:45.010Z,1.75
2023-03-14T12:44:50.730Z,1.80
2023-03-14T12:46:53.415Z,1.80
2023-03-14T12:49:01.934Z,1.81
2023-03-14T12:51:13.221Z,1.75
2023-03-14T12:53:28.499Z,1.76
2023-03-14T12:55:47.635Z,1.73
2023-03-14T12:57:57.823Z,1.67
2023-03-14T13:00:18.387Z,1.59
2023-03-14T13:02:27.057Z,1.61
2023-03-14T13:04:39.704Z,1.51
2023-03-14T13:06:55.351Z,1.44
2023-03-14T13:08:58.457Z,1.43
2023-03-14T13:11:05.382Z,1.37
2023-03-14T13:13:28.012Z,1.38
2023-03-14T13:15:40.143Z,1.32
2023-03-14T13:17:42.689Z,1.26
2023-03-14T13:19:50.156Z,1.13
2023-03-14T13:21:57.883Z,1.12
2023-03-14T13:24:19.883Z,1.10
2023-03-14T13:26:23.444Z,1.06
2023-03-14T13:28:26.632Z,1.07
2023-03-14T13:30:37.904Z,0.99
2023-03-14T13:32:45.119Z,0.98
2023-03-14T13:34:49.832Z,0.97
2023-03-14T13:36:56.349Z,0.93
2023-03-14T13:39:02.778Z,0.95
2023-03-14T13:41:08.380Z,0.96
2023-03-14T13:43:32.787Z,0.94
2023-03-14T13:45:45.979Z,0.93
2023-03-14T13:47:52.629Z,0.84
2023-03-14T13:49:55.636Z,0.76
2023-03-14T13:51:58.316Z,0.81
2023-03-14T13:54:01.124Z,0.89
2023-03-14T13:56:04.821Z,0.82
2023-03-14T13:58:24.444Z,0.74
2023-03-14T14:00:30.591Z,0.75
2023-03-14T14:02:37.684Z,0.73
2023-03-14T14:04:40.756Z,0.75
2023-03-14T14:06:56.837Z,0.71
2023-03-14T14:09:24.008Z,0.70
2023-03-14T14:11:47.049Z,0.66
2023-03-14T14:13:54.203Z,0.70
2023-03-14T14:16:02.100Z,0.65
2023-03-14T14:18:14.572Z,0.59
2023-03-14T14:20:40.778Z,0.59
2023-03-14T14:22:43.659Z,0.62
2023-03-14T14:24:47.422Z,0.63
2023-03-14T14:26:55.494Z,0.64
2023-03-14T14:29:06.634Z,0.59
2023-03-14T14:31:10.163Z,0.61
2023-03-14T14:33:24.508Z,0.59
2023-03-14T14:35:36.319Z,0.60
2023-03-14T14:37:45.352Z,0.50
2023-03-14T14:39:49.086Z,0.55
2023-03-14T14:41:54.632Z,0.54
2023-03-14T14:43:59.782Z,0.57
2023-03-14T14:46:09.590Z,0.57
2023-03-14T14:48:24.471Z,0.56
2023-03-14T14:50:35.733Z,0.58
2023-03-14T14:52:43.339Z,0.57
2023-03-14T14:54:52.033Z,0.57
2023-03-14T14:56:54.887Z,0.57
2023-03-14T14:59:02.352Z,0.53
2023-03-14T15:01:27.893Z,0.56
2023-03-14T15:03:33.487Z,0.58
2023-03-14T15:05:37.812Z,0.58
2023-03-14T15:07:40.472Z,0.62
2023-03-14T15:09:43.996Z,0.59
2023-03-14T15:11:47.546Z,0.59
2023-03-14T15:14:09.092Z,0.63
2023-03-14T15:16:18.359Z,0.62
2023-03-14T15:18:21.479Z,0.55
2023-03-14T15:20:27.089Z,0.56
2023-03-14T15:22:29.659Z,0.61
2023-03-14T15:24:32.391Z,0.56
2023-03-14T15:26:35.273Z,0.56
2023-03-14T15:28:37.890Z,0.60
2023-03-14T15:30:40.512Z,0.59
2023-03-14T15:32:43.493Z,0.57
2023-03-14T15:34:46.219Z,0.57
2023-03-14T15:36:49.818Z,0.61
2023-03-14T15:38:53.947Z,0.62
2023-03-14T15:40:56.697Z,0.65
2023-03-14T15:42:59.301Z,0.65
2023-03-14T15:45:01.971Z,0.60
2023-03-14T15:47:07.150Z,0.56
2023-03-14T15:49:10.406Z,0.51
2023-03-14T15:51:13.037Z,0.51
2023-03-14T15:53:16.437Z,0.55
2023-03-14T15:55:19.299Z,0.57
2023-03-14T15:57:22.110Z,0.48
2023-03-14T15:59:25.461Z,0.46
2023-03-14T16:01:28.086Z,0.53
2023-03-14T16:03:30.959Z,0.47
2023-03-14T16:05:33.644Z,0.50
2023-03-14T16:07:36.376Z,0.47
2023-03-14T16:09:39.074Z,0.49
2023-03-14T16:11:41.700Z,0.46
2023-03-14T16:13:45.126Z,0.53
2023-03-14T16:16:02.481Z,0.49
2023-03-14T16:18:20.745Z,0.45
2023-03-14T16:20:25.107Z,0.45
2023-03-14T16:22:28.081Z,0.40
2023-03-14T16:24:30.879Z,0.43
2023-03-14T16:26:36.825Z,0.44
2023-03-14T16:28:39.949Z,0.44
2023-03-14T16:30:42.968Z,0.44
2023-03-14T16:32:48.319Z,0.45
2023-03-14T16:34:51.441Z,0.43
2023-03-14T16:36:54.250Z,0.41
2023-03-14T16:38:56.981Z,0.39
2023-03-14T16:41:31.444Z,0.41
2023-03-14T16:43:37.359Z,0.37
2023-03-14T16:45:40.101Z,0.40
2023-03-14T16:47:42.751Z,0.42
2023-03-14T16:49:45.451Z,0.45
2023-03-14T16:51:48.159Z,0.41
2023-03-14T16:53:51.154Z,0.46
2023-03-14T16:55:53.784Z,0.46
2023-03-14T16:57:56.351Z,0.39
2023-03-14T16:59:59.048Z,0.46
2023-03-14T17:02:01.860Z,0.45
2023-03-14T17:04:04.633Z,0.48
2023-03-14T17:06:08.215Z,0.50
2023-03-14T17:08:10.928Z,0.47
2023-03-14T17:10:13.505Z,0.47
2023-03-14T17:12:16.658Z,0.45
2023-03-14T17:14:19.423Z,0.49
2023-03-14T17:16:23.709Z,0.56
2023-03-14T17:18:28.829Z,0.51
2023-03-14T17:20:31.625Z,0.50
2023-03-14T17:22:34.420Z,0.48
2023-03-14T17:24:37.665Z,0.47
2023-03-14T17:26:40.340Z,0.58
2023-03-14T17:28:43.608Z,0.59
2023-03-14T17:30:47.929Z,0.66
2023-03-14T17:32:50.738Z,0.68
2023-03-14T17:34:54.708Z,0.74
2023-03-14T17:36:57.391Z,0.73
2023-03-14T17:39:00.117Z,0.73
2023-03-14T17:41:14.568Z,0.70
2023-03-14T17:43:17.868Z,0.76
2023-03-14T17:45:21.234Z,0.78
2023-03-14T17:47:23.902Z,0.80
2023-03-14T17:49:26.933Z,0.82
2023-03-14T17:51:29.548Z,0.87
2023-03-14T17:53:32.201Z,0.91
2023-03-14T17:55:34.804Z,0.93
2023-03-14T17:57:42.801Z,0.95
2023-03-14T17:59:45.382Z,0.94
2023-03-14T18:01:48.155Z,0.96
2023-03-14T18:03:56.393Z,0.95
2023-03-14T18:05:59.061Z,0.97
2023-03-14T18:08:01.631Z,0.92
2023-03-14T18:10:06.927Z,0.90
2023-03-14T18:12:09.617Z,0.94
2023-03-14T18:14:16.295Z,0.97
2023-03-14T18:16:19.270Z,0.95
2023-03-14T18:18:22.007Z,0.94
2023-03-14T18:20:24.593Z,0.95
2023-03-14T18:22:27.267Z,0.92
2023-03-14T18:24:29.836Z,0.90
2023-03-14T18:26:32.518Z,0.90
2023-03-14T18:28:35.488Z,0.93
2023-03-14T18:30:38.306Z,0.94
2023-03-14T18:32:41.106Z,0.93
2023-03-14T18:34:43.846Z,0.91
2023-03-14T18:36:46.594Z,0.93
2023-03-14T18:38:50.963Z,0.93
2023-03-14T18:40:53.564Z,0.92
2023-03-14T18:42:56.749Z,0.85
2023-03-14T18:44:59.344Z,0.90
2023-03-14T18:47:02.504Z,0.91
2023-03-14T18:49:05.223Z,0.91
2023-03-14T18:51:09.195Z,0.92
2023-03-14T18:53:11.808Z,0.88
2023-03-14T18:55:14.570Z,0.91
2023-03-14T18:57:17.130Z,0.90
2023-03-14T18:59:19.769Z,0.89
2023-03-14T19:01:22.976Z,0.86
2023-03-14T19:03:26.489Z,0.87
2023-03-14T19:05:29.089Z,0.92
2023-03-14T19:07:34.281Z,0.92
2023-03-14T19:09:36.956Z,0.90
2023-03-14T19:11:39.633Z,0.90
2023-03-14T19:13:42.962Z,0.90
2023-03-14T19:15:45.556Z,0.94
2023-03-14T19:17:48.657Z,0.96
2023-03-14T19:19:52.971Z,0.97
2023-03-14T19:21:55.641Z,0.98
2023-03-14T19:23:58.504Z,0.99
2023-03-14T19:26:02.967Z,0.99
2023-03-14T19:28:05.679Z,0.95
2023-03-14T19:30:08.977Z,0.97
2023-03-14T19:32:12.807Z,0.98
2023-03-14T19:34:15.523Z,0.93
2023-03-14T19:36:29.754Z,0.98
2023-03-14T19:38:32.416Z,0.99
2023-03-14T19:40:38.305Z,1.00
2023-03-14T19:42:40.974Z,1.01
2023-03-14T19:44:43.572Z,0.96
2023-03-14T19:46:46.171Z,0.97
2023-03-14T19:48:49.478Z,1.00
2023-03-14T19:50:52.130Z,0.97
2023-03-14T19:52:58.336Z,0.99
2023-03-14T19:55:02.008Z,0.96
2023-03-14T19:57:06.075Z,0.96
2023-03-14T19:59:08.763Z,0.98
2023-03-14T20:01:12.962Z,1.02
2023-03-14T20:03:15.730Z,1.00
2023-03-14T20:05:23.252Z,1.01
2023-03-14T20:07:27.945Z,1.03
2023-03-14T20:09:30.870Z,1.07
2023-03-14T20:11:35.520Z,1.03
2023-03-14T20:13:39.442Z,1.00
2023-03-14T20:15:42.628Z,1.04
2023-03-14T20:17:49.627Z,1.02
2023-03-14T20:19:52.380Z,1.05
2023-03-14T20:21:55.214Z,1.08
2023-03-14T20:23:57.812Z,1.12
2023-03-14T20:26:02.407Z,1.11
2023-03-14T20:28:05.455Z,1.12
2023-03-14T20:30:13.103Z,1.14
2023-03-14T20:32:16.546Z,1.15
2023-03-14T20:34:19.345Z,1.14
2023-03-14T20:36:22.017Z,1.18
2023-03-14T20:38:26.869Z,1.17
2023-03-14T20:40:29.570Z,1.16
2023-03-14T20:42:32.237Z,1.17
2023-03-14T20:44:34.895Z,1.16
2023-03-14T20:46:38.174Z,1.14
2023-03-14T20:48:40.802Z,1.17
2023-03-14T20:50:43.540Z,1.13
2023-03-14T20:52:46.502Z,1.15
2023-03-14T20:54:49.219Z,1.16
2023-03-14T20:56:51.821Z,1.16
2023-03-14T20:58:54.412Z,1.19
2023-03-14T21:00:58.357Z,1.21
2023-03-14T21:03:01.892Z,1.24
2023-03-14T21:05:05.349Z,1.20
2023-03-14T21:07:08.028Z,1.24
2023-03-14T21:09:10.764Z,1.26
2023-03-14T21:11:13.301Z,1.25
2023-03-14T21:13:16.132Z,1.26
2023-03-14T21:15:18.855Z,1.29
2023-03-14T21:17:21.452Z,1.30
2023-03-14T21:19:31.167Z,1.31
2023-03-14T21:21:33.764Z,1.35
2023-03-14T21:23:36.447Z,1.35
2023-03-14T21:25:41.902Z,1.35
2023-03-14T21:27:45.706Z,1.38
2023-03-14T21:29:48.633Z,1.38
2023-03-14T21:31:51.840Z,1.41
2023-03-14T21:33:54.360Z,1.40
2023-03-14T21:35:57.062Z,1.32
2023-03-14T21:37:59.667Z,1.40
2023-03-14T21:40:02.304Z,1.44
2023-03-14T21:42:06.093Z,1.44
2023-03-14T21:44:08.666Z,1.49
2023-03-14T21:46:11.498Z,1.49
2023-03-14T21:48:14.293Z,1.52
2023-03-14T21:50:17.140Z,1.52
2023-03-14T21:52:21.613Z,1.52
2023-03-14T21:54:24.134Z,1.53
2023-03-14T21:56:27.176Z,1.51
2023-03-14T21:58:29.757Z,1.56
2023-03-14T22:00:32.271Z,1.58
2023-03-14T22:02:34.891Z,1.54
2023-03-14T22:04:37.749Z,1.60
2023-03-14T22:06:40.408Z,1.62
2023-03-14T22:08:43.006Z,1.62
2023-03-14T22:10:51.172Z,1.64
2023-03-14T22:12:54.121Z,1.63
2023-03-14T22:14:56.874Z,1.60
2023-03-14T22:17:00.210Z,1.60
2023-03-14T22:19:02.845Z,1.55
2023-03-14T22:21:05.619Z,1.55
2023-03-14T22:23:08.321Z,1.54
2023-03-14T22:25:10.982Z,1.58
2023-03-14T22:27:13.707Z,1.58
2023-03-14T22:29:17.699Z,1.59
2023-03-14T22:31:20.525Z,1.61
2023-03-14T22:33:23.146Z,1.59
2023-03-14T22:35:25.917Z,1.60
2023-03-14T22:37:28.822Z,1.60
2023-03-14T22:39:32.596Z,1.60
2023-03-14T22:41:36.087Z,1.59
2023-03-14T22:43:38.669Z,1.64
2023-03-14T22:45:41.366Z,1.65
2023-03-14T22:47:43.921Z,1.70
2023-03-14T22:49:46.484Z,1.72
2023-03-14T22:51:49.156Z,1.72
2023-03-14T22:53:51.806Z,1.73
2023-03-14T22:56:01.203Z,1.76
2023-03-14T22:58:04.006Z,1.72
2023-03-14T23:00:12.277Z,1.71
2023-03-14T23:02:15.092Z,1.75
2023-03-14T23:04:17.724Z,1.78
2023-03-14T23:06:21.157Z,1.76
2023-03-14T23:08:24.496Z,1.79
2023-03-14T23:10:27.130Z,1.79
2023-03-14T23:12:29.859Z,1.81
2023-03-14T23:14:32.452Z,1.84
2023-03-14T23:16:40.501Z,1.77
2023-03-14T23:18:43.794Z,1.77
2023-03-14T23:20:48.278Z,1.76
2023-03-14T23:22:51.530Z,1.77
2023-03-14T23:24:54.143Z,1.81
2023-03-14T23:26:56.797Z,1.82
2023-03-14T23:28:59.773Z,1.83
2023-03-14T23:31:06.530Z,1.81
2023-03-14T23:33:09.698Z,1.81
2023-03-14T23:35:14.481Z,1.80
2023-03-14T23:37:18.215Z,1.83
2023-03-14T23:39:20.913Z,1.83
2023-03-14T23:41:23.519Z,1.81
2023-03-14T23:43:26.257Z,1.81
2023-03-14T23:45:28.805Z,1.81
2023-03-14T23:47:31.399Z,1.81
2023-03-14T23:49:33.930Z,1.77
2023-03-14T23:51:36.610Z,1.78
2023-03-14T23:53:40.709Z,1.79
2023-03-14T23:55:43.273Z,1.80
2023-03-14T23:57:45.854Z,1.81
2023-03-14T23:59:49.448Z,1.76
